Nearby METAR Reports

 

KTTN - Trenton, New Jersey, USA
Distance from station: W 8mi, 12km
Updated: Sat, 16-Jan-2021 9:53pm EST
Clear
Clear
 Wind from W
Wind: W 6 mph , 9 km/h
Temperature: 36°F , 2°C
Wind Chill: 31°F , -1°C
Dew Point: 25°F , -4°C
Humidity: 65%
Barometer: 29.49 inHg , 998.6 hPa
Clouds: Clear
Visibility: 10 miles , 16 km
2021/01/17 02:53 KTTN 170253Z 27005KT 10SM CLR 02/M04 A2949 RMK AO2 SLP980 T00221039 51009
KWRI - Wrightst/Mcguire, New Jersey, USA
Distance from station: SSE 18mi, 29km
Updated: Sat, 16-Jan-2021 9:56pm EST
Clear
Clear
 Wind from W
Wind: W 12 mph , 19 km/h, Gust: 20 mph , 31 km/h
Temperature: 37°F , 3°C
Wind Chill: 29°F , -2°C
Dew Point: 25°F , -4°C
Humidity: 60%
Barometer: 29.49 inHg , 998.6 hPa
Clouds: Clear
Visibility: 10 miles , 16 km
2021/01/17 02:56 KWRI 170256Z 28010G17KT 10SM CLR 03/M04 A2949 RMK AO2A SLP987 T00321038 52007 $
KPNE - Philadelphia/Ne, Pennsylvania, USA
Distance from station: SW 22mi, 35km
Updated: Sat, 16-Jan-2021 9:54pm EST
Clear
Clear
 Wind from W
Wind: W 9 mph , 15 km/h
Temperature: 39°F , 4°C
Wind Chill: 33°F , 1°C
Dew Point: 27°F , -3°C
Humidity: 61%
Barometer: 29.52 inHg , 999.7 hPa
Clouds: Clear
Visibility: 10 miles , 16 km
2021/01/17 02:54 KPNE 170254Z AUTO 27008KT 10SM CLR 04/M03 A2952 RMK AO2 SLP998 T00391033 53009 $
 
KDYL - Doylestown, Pennsylvania, USA
Distance from station: W 24mi, 38km
Updated: Sat, 16-Jan-2021 9:54pm EST
Clear
Clear
 Wind from W
Wind: W 9 mph , 15 km/h
Temperature: 37°F , 3°C
Wind Chill: 30°F , -1°C
Dew Point: 23°F , -5°C
Humidity: 56%
Barometer: 29.49 inHg , 998.6 hPa
Clouds: Clear
Visibility: 10 miles , 16 km
2021/01/17 02:54 KDYL 170254Z AUTO 27008KT 10SM CLR 03/M05 A2949 RMK AO2 SLP990 T00281050 51007
KSMQ - Somerville, New Jersey, USA
Distance from station: 0 24mi, 39km
Updated: Sat, 16-Jan-2021 9:53pm EST
Clear
Clear
 Wind from varies
Wind: varies 5 mph , 7 km/h
Temperature: 36°F , 2°C
Wind Chill: 32°F , 0°C
Dew Point: 27°F , -3°C
Humidity: 70%
Barometer: 29.46 inHg , 997.6 hPa
Clouds: Clear
Visibility: 10 miles , 16 km
2021/01/17 02:53 KSMQ 170253Z AUTO VRB04KT 10SM CLR 02/M03 A2946 RMK AO2 SLP976 T00221033 52005
KVAY - Mount Holly, New Jersey, USA
Distance from station: SSW 24mi, 39km
Updated: Sat, 16-Jan-2021 9:54pm EST
Few Clouds
Few Clouds
 Wind from W
Wind: W 8 mph , 13 km/h
Temperature: 39°F , 4°C
Wind Chill: 33°F , 1°C
Dew Point: 27°F , -3°C
Humidity: 61%
Barometer: 29.51 inHg , 999.3 hPa
Clouds: Few Clouds
Visibility: 10 miles , 16 km
Cloud details: Few Clouds 11000 ft
2021/01/17 02:54 KVAY 170254Z AUTO 27007KT 10SM FEW110 04/M03 A2951 RMK AO2 SLP993 T00441033 51008
 
KNEL - Lakehurst Nas, New Jersey, USA
Distance from station: SE 25mi, 40km
Updated: Sat, 16-Jan-2021 10:00pm EST
Clear
Clear
 Wind from W
Wind: W 13 mph , 20 km/h
Temperature: 37°F , 3°C
Wind Chill: 29°F , -2°C
Dew Point: 28°F , -2°C
Humidity: 70%
Barometer: 29.48 inHg , 998.3 hPa
Clouds: Clear
Visibility: 10 miles , 16 km
2021/01/17 03:00 KNEL 170300Z AUTO 28011KT 10SM CLR 03/M02 A2948 RMK AO2 SLP981 T00281022 51007 $
KBLM - Belmar/Farmdale, New Jersey, USA
Distance from station: ESE 30mi, 48km
Updated: Sat, 16-Jan-2021 9:56pm EST
Clear
Clear
 Wind from W
Wind: W 12 mph , 19 km/h
Temperature: 37°F , 3°C
Wind Chill: 29°F , -2°C
Dew Point: 27°F , -3°C
Humidity: 65%
Barometer: 29.48 inHg , 998.3 hPa
Clouds: Clear
Visibility: 10 miles , 16 km
2021/01/17 02:56 KBLM 170256Z AUTO 27010KT 10SM CLR 03/M03 A2948 RMK AO2 SLP983 T00331028 51004
KMJX - Toms River, New Jersey, USA
Distance from station: SE 30mi, 49km
Updated: Sat, 16-Jan-2021 9:56pm EST
Clear
Clear
 Wind from W
Wind: W 8 mph , 13 km/h
Temperature: 34°F , 1°C
Wind Chill: 27°F , -3°C
Dew Point: 27°F , -3°C
Humidity: 75%
Barometer: 29.49 inHg , 998.6 hPa
Clouds: Clear
Visibility: 10 miles , 16 km
2021/01/17 02:56 KMJX 170256Z AUTO 26007KT 10SM CLR 01/M03 A2949 RMK AO2 SLP991 T00111028 51006 FZRANO
 
KLOM - Philly Wings F, Pennsylvania, USA
Distance from station: WSW 33mi, 52km
Updated: Sat, 16-Jan-2021 10:15pm EST
Clear
Clear
 Wind from WSW
Wind: WSW 7 mph , 11 km/h
Temperature: 36°F , 2°C
Wind Chill: 30°F , -1°C
Dew Point: 27°F , -3°C
Humidity: 70%
Barometer: 29.52 inHg , 999.7 hPa
Clouds: Clear
Visibility: 10 miles , 16 km
2021/01/17 03:15 KLOM 170315Z AUTO 25006KT 10SM CLR 02/M03 A2952 RMK AO2 T00191031
KCKZ - Perkasie, Pennsylvania, USA
Distance from station: WNW 33mi, 53km
Updated: Sat, 16-Jan-2021 10:15pm EST
Clear
Clear
 Wind from W
Wind: W 9 mph , 15 km/h
Temperature: 36°F , 2°C
Wind Chill: 29°F , -2°C
Dew Point: 25°F , -4°C
Humidity: 65%
Barometer: 29.50 inHg , 999 hPa
Clouds: Clear
Visibility: 10 miles , 16 km
2021/01/17 03:15 KCKZ 170315Z AUTO 27008KT 10SM CLR 02/M04 A2950 RMK AO2
KLDJ - Linden, New Jersey, USA
Distance from station: NE 33mi, 53km
Updated: Sat, 16-Jan-2021 10:15pm EST
Clear
Clear
 Wind from W
Wind: W 13 mph , 20 km/h, Gust: 17 mph , 28 km/h
Temperature: 37°F , 3°C
Wind Chill: 29°F , -2°C
Dew Point: 27°F , -3°C
Humidity: 65%
Barometer: 29.46 inHg , 997.6 hPa
Clouds: Clear
Visibility: 10 miles , 16 km
2021/01/17 03:15 KLDJ 170315Z AUTO 28011G15KT 10SM CLR 03/M03 A2946 RMK AO2 T00301026
 
KMMU - Morristown Muni, New Jersey, USA
Distance from station: NNE 38mi, 62km
Updated: Sat, 16-Jan-2021 6:45pm EST
NOT Current
Mostly cloudy
Mostly cloudy
 Wind from WNW
Wind: WNW 6 mph , 9 km/h
Temperature: 39°F , 4°C
Wind Chill: 35°F , 2°C
Dew Point: 32°F , 0°C
Humidity: 75%
Barometer: 29.45 inHg , 997.3 hPa
Clouds: Mostly cloudy
Visibility: 10 miles , 16 km
Cloud details: Few Clouds 3000 ft
Partly cloudy 4500 ft
Mostly cloudy 12000 ft
2021/01/16 23:45 KMMU 162345Z 30005KT 10SM FEW030 SCT045 BKN120 04/00 A2945
KEWR - Newark, New Jersey, USA
Distance from station: NE 39mi, 63km
Updated: Sat, 16-Jan-2021 9:51pm EST
Few Clouds
Few Clouds
 Wind from WSW
Wind: WSW 13 mph , 20 km/h, Gust: 21 mph , 33 km/h
Temperature: 37°F , 3°C
Wind Chill: 29°F , -2°C
Dew Point: 27°F , -3°C
Humidity: 65%
Barometer: 29.44 inHg , 997 hPa
Clouds: Few Clouds
Visibility: 10 miles , 16 km
Cloud details: Few Clouds 13000 ft
2021/01/17 02:51 KEWR 170251Z 25011G18KT 10SM FEW130 03/M03 A2944 RMK AO2 SLP969 T00331028 58001
KUKT - Quakertown Arp, Pennsylvania, USA
Distance from station: WNW 39mi, 63km
Updated: Sat, 16-Jan-2021 10:15pm EST
Clear
Clear
 Wind from W
Wind: W 10 mph , 17 km/h
Temperature: 36°F , 2°C
Wind Chill: 29°F , -2°C
Dew Point: 27°F , -3°C
Humidity: 70%
Barometer: 29.49 inHg , 998.6 hPa
Clouds: Clear
Visibility: 10 miles , 16 km
2021/01/17 03:15 KUKT 170315Z AUTO 26009KT 220V280 10SM CLR 02/M03 A2949 RMK A01
 
KPHL - Philadelphia, Pennsylvania, USA
Distance from station: SW 40mi, 65km
Updated: Sat, 16-Jan-2021 9:54pm EST
Partly cloudy
Partly cloudy
 Wind from W
Wind: W 13 mph , 20 km/h
Temperature: 39°F , 4°C
Wind Chill: 31°F , -1°C
Dew Point: 25°F , -4°C
Humidity: 56%
Barometer: 29.53 inHg , 1000 hPa
Clouds: Partly cloudy
Visibility: 10 miles , 16 km
Cloud details: Few Clouds 5000 ft
Partly cloudy 10000 ft
2021/01/17 02:54 KPHL 170254Z 27011KT 10SM FEW050 SCT100 04/M04 A2953 RMK AO2 SLP001 T00391039 51010
KJRB - Manhattan/Dwntwn, New York, USA
Distance from station: NE 46mi, 74km
Updated: Sat, 16-Jan-2021 9:56pm EST
Clear
Clear
 Wind from W
Wind: W 12 mph , 19 km/h, Gust: 21 mph , 33 km/h
Temperature: 39°F , 4°C
Wind Chill: 32°F , 0°C
Dew Point: 28°F , -2°C
Humidity: 65%
Barometer: 29.45 inHg , 997.3 hPa
Clouds: Clear
Visibility: 10 miles , 16 km
2021/01/17 02:56 KJRB 170256Z AUTO 27010G18KT 10SM CLR 04/M02 A2945 RMK AO2 SLP973 T00391017 50000
KPTW - Pottstown, Pennsylvania, USA
Distance from station: W 46mi, 74km
Updated: Sat, 16-Jan-2021 9:54pm EST
Clear
Clear
 Wind from W
Wind: W 7 mph , 11 km/h
Temperature: 34°F , 1°C
Wind Chill: 28°F , -2°C
Dew Point: 25°F , -4°C
Humidity: 70%
Barometer: 29.52 inHg , 999.7 hPa
Clouds: Clear
Visibility: 10 miles , 16 km
2021/01/17 02:54 KPTW 170254Z AUTO 27006KT 10SM CLR 01/M04 A2952 RMK AO2 SLP997 T00111039 51007
 
KCDW - Caldwell, New Jersey, USA
Distance from station: NNE 47mi, 76km
Updated: Sat, 16-Jan-2021 9:53pm EST
Clear
Clear
 Wind from varies
Wind: varies 6 mph , 9 km/h
Temperature: 39°F , 4°C
Wind Chill: 35°F , 2°C
Dew Point: 25°F , -4°C
Humidity: 56%
Barometer: 29.44 inHg , 997 hPa
Clouds: Clear
Visibility: 10 miles , 16 km
2021/01/17 02:53 KCDW 170253Z VRB05KT 10SM CLR 04/M04 A2944 RMK AO2 SLP976 T00391044 55000
KXLL - Allentown Queen, Pennsylvania, USA
Distance from station: WNW 47mi, 76km
Updated: Sat, 16-Jan-2021 10:15pm EST
Clear
Clear
 Wind from WSW
Wind: WSW 8 mph , 13 km/h
Temperature: 34°F , 1°C
Wind Chill: 27°F , -3°C
Dew Point: 27°F , -3°C
Humidity: 75%
Barometer: 29.51 inHg , 999.3 hPa
Clouds: Clear
Visibility: 10 miles , 16 km
2021/01/17 03:15 KXLL 170315Z AUTO 24007KT 10SM CLR 01/M03 A2951 RMK AO2